createdAt,value
2022-08-17T00:00:02.755Z,52.77
2022-08-17T00:01:02.830Z,47.98
2022-08-17T00:02:07.606Z,50.46
2022-08-17T00:03:03.743Z,50.96
2022-08-17T00:04:02.738Z,50.30
2022-08-17T00:05:02.832Z,49.31
2022-08-17T00:06:02.729Z,49.28
2022-08-17T00:07:02.719Z,49.60
2022-08-17T00:08:02.729Z,53.43
2022-08-17T00:09:02.698Z,53.44
2022-08-17T00:10:02.696Z,48.53
2022-08-17T00:11:02.684Z,52.68
2022-08-17T00:12:03.909Z,51.77
2022-08-17T00:13:03.704Z,51.54
2022-08-17T00:14:03.671Z,51.61
2022-08-17T00:15:02.656Z,49.48
2022-08-17T00:16:02.660Z,49.83
2022-08-17T00:17:02.659Z,51.91
2022-08-17T00:18:02.651Z,47.06
2022-08-17T00:19:08.309Z,51.76
2022-08-17T00:20:03.660Z,49.14
2022-08-17T00:21:02.611Z,53.29
2022-08-17T00:22:34.266Z,50.53
2022-08-17T00:23:03.610Z,45.57
2022-08-17T00:24:02.590Z,51.06
2022-08-17T00:25:02.617Z,51.01
2022-08-17T00:26:02.591Z,50.08
2022-08-17T00:27:02.580Z,51.89
2022-08-17T00:28:02.571Z,52.27
2022-08-17T00:29:02.564Z,54.46
2022-08-17T00:30:02.562Z,50.64
2022-08-17T00:31:02.566Z,49.67
2022-08-17T00:33:14.307Z,54.83
2022-08-17T00:33:16.082Z,49.89
2022-08-17T00:34:03.522Z,47.19
2022-08-17T00:35:02.522Z,54.41
2022-08-17T00:36:02.530Z,53.79
2022-08-17T00:37:02.498Z,51.38
2022-08-17T00:38:02.497Z,47.37
2022-08-17T00:39:02.494Z,49.42
2022-08-17T00:40:02.557Z,51.37
2022-08-17T00:41:02.510Z,46.26
2022-08-17T00:42:02.462Z,48.65
2022-08-17T00:43:02.462Z,47.35
2022-08-17T00:44:02.458Z,47.92
2022-08-17T00:45:02.542Z,48.93
2022-08-17T00:46:02.439Z,51.05
2022-08-17T00:47:02.441Z,50.21
2022-08-17T00:48:02.433Z,51.75
2022-08-17T00:49:02.412Z,47.13
2022-08-17T00:50:02.414Z,47.93
2022-08-17T00:51:02.410Z,49.41
2022-08-17T00:52:02.397Z,47.18
2022-08-17T00:53:03.397Z,46.65
2022-08-17T00:54:02.369Z,53.66
2022-08-17T00:55:03.375Z,50.24
2022-08-17T00:56:02.371Z,48.34
2022-08-17T00:57:02.360Z,47.02
2022-08-17T00:58:02.351Z,52.15
2022-08-17T00:59:02.345Z,51.00
2022-08-17T01:00:03.765Z,48.73
2022-08-17T01:01:02.404Z,51.39
2022-08-17T01:02:02.325Z,48.33
2022-08-17T01:03:02.336Z,52.53
2022-08-17T01:04:02.311Z,48.47
2022-08-17T01:05:02.306Z,47.88
2022-08-17T01:06:02.310Z,51.34
2022-08-17T01:07:02.281Z,50.90
2022-08-17T01:08:02.281Z,53.58
2022-08-17T01:09:02.276Z,51.08
2022-08-17T01:10:02.262Z,52.34
2022-08-17T01:11:02.349Z,53.89
2022-08-17T01:12:02.253Z,52.47
2022-08-17T01:13:02.242Z,51.73
2022-08-17T01:14:02.248Z,50.96
2022-08-17T01:15:02.233Z,49.10
2022-08-17T01:16:02.216Z,52.21
2022-08-17T01:17:03.209Z,47.96
2022-08-17T01:18:02.200Z,52.44
2022-08-17T01:19:02.212Z,49.59
2022-08-17T01:20:02.190Z,52.46
2022-08-17T01:21:02.180Z,50.94
2022-08-17T01:22:02.180Z,48.31
2022-08-17T01:23:02.169Z,52.61
2022-08-17T01:24:02.246Z,46.69
2022-08-17T01:25:02.157Z,55.40
2022-08-17T01:26:02.157Z,51.09
2022-08-17T01:27:02.140Z,51.24
2022-08-17T01:28:02.136Z,51.67
2022-08-17T01:29:02.148Z,49.49
2022-08-17T01:30:02.164Z,53.11
2022-08-17T01:31:02.128Z,47.84
2022-08-17T01:32:02.108Z,52.42
2022-08-17T01:33:02.100Z,54.11
2022-08-17T01:34:02.084Z,48.45
2022-08-17T01:35:02.089Z,50.76
2022-08-17T01:36:02.093Z,52.61
2022-08-17T01:37:02.073Z,50.54
2022-08-17T01:38:02.068Z,52.48
2022-08-17T01:39:02.061Z,50.33
2022-08-17T01:40:02.143Z,54.58
2022-08-17T01:41:02.038Z,51.17
2022-08-17T01:42:02.049Z,54.32
2022-08-17T01:43:02.022Z,52.52
2022-08-17T01:44:02.019Z,55.55
2022-08-17T01:45:02.004Z,54.68
2022-08-17T01:46:03.288Z,55.81
2022-08-17T01:47:02.001Z,54.64
2022-08-17T01:48:01.993Z,55.41
2022-08-17T01:49:01.983Z,49.09
2022-08-17T01:50:01.980Z,55.32
2022-08-17T01:51:01.969Z,51.78
2022-08-17T01:52:01.950Z,50.85
2022-08-17T01:53:02.951Z,52.16
2022-08-17T01:54:01.986Z,52.07
2022-08-17T01:55:01.939Z,51.71
2022-08-17T01:56:01.935Z,53.63
2022-08-17T01:57:01.939Z,50.21
2022-08-17T01:58:02.206Z,47.93
2022-08-17T01:59:01.914Z,48.68
2022-08-17T02:00:01.906Z,51.22
2022-08-17T02:01:02.004Z,48.41
2022-08-17T02:02:01.910Z,50.72
2022-08-17T02:03:01.878Z,52.03
2022-08-17T02:04:02.060Z,48.16
2022-08-17T02:05:01.862Z,48.29
2022-08-17T02:06:01.863Z,50.22
2022-08-17T02:07:01.863Z,50.63
2022-08-17T02:08:01.846Z,54.68
2022-08-17T02:09:03.828Z,49.08
2022-08-17T02:10:01.821Z,51.76
2022-08-17T02:11:01.827Z,51.26
2022-08-17T02:12:38.124Z,53.76
2022-08-17T02:13:02.821Z,54.46
2022-08-17T02:14:02.922Z,49.59
2022-08-17T02:15:01.789Z,54.02
2022-08-17T02:16:01.774Z,55.51
2022-08-17T02:17:01.778Z,49.56
2022-08-17T02:18:01.782Z,49.42
2022-08-17T02:19:01.765Z,52.31
2022-08-17T02:20:01.756Z,50.78
2022-08-17T02:21:01.746Z,53.92
2022-08-17T02:22:01.738Z,54.02
2022-08-17T02:23:01.755Z,53.42
2022-08-17T02:24:01.721Z,54.03
2022-08-17T02:25:02.379Z,48.27
2022-08-17T02:26:02.706Z,49.33
2022-08-17T02:27:01.695Z,52.97
2022-08-17T02:28:02.713Z,50.48
2022-08-17T02:29:01.677Z,54.63
2022-08-17T02:30:01.695Z,55.67
2022-08-17T02:31:03.186Z,54.35
2022-08-17T02:32:02.657Z,51.35
2022-08-17T02:33:04.157Z,54.35
2022-08-17T02:34:03.597Z,53.68
2022-08-17T02:35:01.639Z,54.95
2022-08-17T02:36:02.635Z,52.58
2022-08-17T02:37:01.629Z,53.97
2022-08-17T02:38:01.612Z,55.96
2022-08-17T02:39:01.636Z,53.95
2022-08-17T02:40:01.651Z,52.88
2022-08-17T02:41:01.608Z,55.08
2022-08-17T02:42:01.586Z,55.01
2022-08-17T02:43:01.589Z,52.89
2022-08-17T02:44:01.579Z,57.25
2022-08-17T02:45:01.591Z,52.97
2022-08-17T02:46:01.568Z,52.91
2022-08-17T02:47:01.565Z,52.52
2022-08-17T02:48:01.544Z,54.90
2022-08-17T02:49:01.546Z,58.54
2022-08-17T02:50:01.547Z,55.71
2022-08-17T02:51:01.532Z,57.15
2022-08-17T02:52:01.531Z,58.12
2022-08-17T02:53:02.860Z,58.16
2022-08-17T02:54:38.951Z,55.86
2022-08-17T02:55:02.508Z,54.09
2022-08-17T02:56:01.483Z,53.37
2022-08-17T02:57:01.508Z,51.48
2022-08-17T02:58:01.494Z,57.08
2022-08-17T02:59:01.480Z,56.96
2022-08-17T03:00:01.459Z,57.52
2022-08-17T03:01:01.475Z,54.67
2022-08-17T03:02:01.564Z,56.26
2022-08-17T03:03:01.447Z,57.38
2022-08-17T03:04:01.438Z,55.49
2022-08-17T03:05:01.433Z,56.31
2022-08-17T03:06:01.429Z,54.35
2022-08-17T03:07:01.435Z,54.54
2022-08-17T03:08:01.408Z,55.80
2022-08-17T03:09:01.403Z,54.55
2022-08-17T03:10:01.391Z,56.81
2022-08-17T03:11:01.376Z,55.44
2022-08-17T03:12:01.382Z,57.35
2022-08-17T03:13:01.399Z,58.32
2022-08-17T03:14:01.366Z,57.00
2022-08-17T03:15:01.367Z,55.65
2022-08-17T03:16:01.364Z,57.20
2022-08-17T03:17:01.343Z,55.25
2022-08-17T03:18:01.354Z,56.34
2022-08-17T03:19:01.342Z,54.80
2022-08-17T03:20:01.324Z,57.74
2022-08-17T03:21:01.317Z,57.35
2022-08-17T03:22:01.314Z,55.70
2022-08-17T03:23:03.129Z,55.08
2022-08-17T03:24:01.303Z,55.67
2022-08-17T03:25:02.285Z,57.46
2022-08-17T03:26:01.294Z,57.23
2022-08-17T03:27:01.271Z,58.65
2022-08-17T03:28:01.271Z,58.51
2022-08-17T03:29:01.268Z,56.57
2022-08-17T03:30:01.255Z,57.71
2022-08-17T03:31:01.268Z,56.91
2022-08-17T03:32:01.243Z,57.34
2022-08-17T03:33:01.227Z,57.54
2022-08-17T03:34:01.231Z,59.11
2022-08-17T03:35:01.229Z,60.43
2022-08-17T03:36:01.235Z,58.98
2022-08-17T03:37:01.206Z,59.12
2022-08-17T03:38:01.401Z,59.48
2022-08-17T03:39:01.194Z,59.83
2022-08-17T03:40:01.222Z,58.50
2022-08-17T03:41:02.201Z,59.12
2022-08-17T03:42:01.176Z,60.26
2022-08-17T03:43:01.167Z,59.64
2022-08-17T03:44:01.161Z,60.46
2022-08-17T03:45:01.158Z,57.75
2022-08-17T03:46:01.156Z,59.13
2022-08-17T03:47:01.142Z,57.45
2022-08-17T03:48:01.119Z,58.50
2022-08-17T03:49:01.124Z,60.10
2022-08-17T03:50:01.107Z,59.11
2022-08-17T03:51:01.114Z,59.52
2022-08-17T03:52:01.151Z,59.97
2022-08-17T03:53:01.100Z,59.68
2022-08-17T03:54:01.089Z,62.00
2022-08-17T03:55:01.088Z,59.75
2022-08-17T03:56:01.071Z,58.41
2022-08-17T03:57:01.071Z,58.02
2022-08-17T03:58:01.059Z,59.14
2022-08-17T03:59:01.055Z,58.70
2022-08-17T04:00:01.040Z,58.63
2022-08-17T04:01:01.128Z,58.77
2022-08-17T04:02:01.030Z,57.78
2022-08-17T04:03:01.028Z,58.03
2022-08-17T04:04:01.012Z,58.01
2022-08-17T04:05:01.010Z,58.55
2022-08-17T04:06:01.005Z,58.86
2022-08-17T04:07:00.992Z,58.54
2022-08-17T04:08:00.994Z,59.52
2022-08-17T04:09:00.987Z,60.03
2022-08-17T04:10:00.978Z,60.38
2022-08-17T04:11:00.962Z,61.03
2022-08-17T04:12:02.325Z,59.86
2022-08-17T04:13:00.956Z,60.50
2022-08-17T04:14:00.963Z,58.82
2022-08-17T04:15:00.936Z,61.59
2022-08-17T04:16:00.914Z,60.42
2022-08-17T04:17:00.928Z,59.13
2022-08-17T04:18:00.912Z,58.92
2022-08-17T04:19:00.904Z,60.42
2022-08-17T04:20:00.902Z,60.75
2022-08-17T04:21:00.883Z,61.69
2022-08-17T04:22:00.907Z,60.59
2022-08-17T04:23:00.879Z,60.83
2022-08-17T04:24:00.855Z,61.40
2022-08-17T04:25:00.886Z,61.25
2022-08-17T04:26:00.848Z,61.00
2022-08-17T04:27:00.847Z,59.33
2022-08-17T04:28:00.843Z,59.04
2022-08-17T04:29:00.827Z,59.05
2022-08-17T04:30:00.847Z,59.44
2022-08-17T04:31:00.815Z,58.98
2022-08-17T04:32:00.811Z,60.10
2022-08-17T04:33:06.271Z,59.23
2022-08-17T04:34:01.792Z,59.07
2022-08-17T04:35:00.787Z,59.41
2022-08-17T04:36:00.787Z,58.79
2022-08-17T04:37:00.767Z,59.85
2022-08-17T04:38:00.763Z,59.54
2022-08-17T04:39:00.743Z,58.79
2022-08-17T04:40:03.822Z,58.45
2022-08-17T04:41:01.755Z,58.01
2022-08-17T04:42:00.728Z,59.05
2022-08-17T04:43:01.047Z,58.93
2022-08-17T04:44:00.710Z,59.11
2022-08-17T04:45:00.707Z,60.05
2022-08-17T04:46:00.710Z,58.84
2022-08-17T04:47:00.690Z,60.09
2022-08-17T04:48:00.692Z,59.68
2022-08-17T04:49:00.678Z,59.39
2022-08-17T04:50:00.672Z,60.40
2022-08-17T04:51:00.687Z,59.79
2022-08-17T04:52:04.351Z,60.03
2022-08-17T04:53:01.878Z,59.86
2022-08-17T04:54:00.638Z,59.59
2022-08-17T04:55:00.627Z,59.69
2022-08-17T04:56:00.642Z,58.90
2022-08-17T04:57:00.614Z,58.67
2022-08-17T04:58:00.611Z,59.09
2022-08-17T04:59:00.603Z,58.79
2022-08-17T05:00:00.591Z,59.63
2022-08-17T05:01:00.641Z,61.14
2022-08-17T05:02:00.607Z,59.76
2022-08-17T05:03:00.567Z,58.73
2022-08-17T05:04:00.563Z,57.89
2022-08-17T05:05:00.555Z,58.47
2022-08-17T05:06:00.555Z,59.07
2022-08-17T05:07:00.553Z,66.73
2022-08-17T05:08:00.533Z,57.51
2022-08-17T05:09:00.527Z,56.61
2022-08-17T05:10:00.515Z,58.60
2022-08-17T05:11:00.522Z,59.32
2022-08-17T05:12:00.526Z,58.88
2022-08-17T05:13:00.503Z,57.74
2022-08-17T05:14:00.494Z,57.31
2022-08-17T05:15:00.486Z,58.51
2022-08-17T05:16:00.474Z,59.47
2022-08-17T05:17:00.470Z,59.24
2022-08-17T05:18:00.492Z,59.32
2022-08-17T05:19:00.454Z,59.33
2022-08-17T05:20:00.451Z,59.12
2022-08-17T05:21:00.443Z,60.21
2022-08-17T05:22:00.431Z,58.61
2022-08-17T05:23:00.434Z,58.13
2022-08-17T05:24:00.442Z,57.03
2022-08-17T05:25:02.657Z,56.52
2022-08-17T05:26:00.406Z,57.09
2022-08-17T05:27:06.063Z,57.28
2022-08-17T05:28:02.391Z,57.35
2022-08-17T05:29:02.665Z,56.72
2022-08-17T05:30:00.374Z,57.48
2022-08-17T05:31:00.367Z,57.63
2022-08-17T05:32:00.363Z,57.11
2022-08-17T05:33:01.360Z,57.03
2022-08-17T05:34:00.372Z,57.63
2022-08-17T05:35:00.611Z,57.86
2022-08-17T05:36:00.355Z,58.13
2022-08-17T05:37:00.326Z,58.75
2022-08-17T05:38:00.323Z,57.01
2022-08-17T05:39:00.310Z,57.85
2022-08-17T05:40:00.420Z,57.31
2022-08-17T05:41:00.310Z,57.93
2022-08-17T05:42:00.295Z,60.29
2022-08-17T05:43:00.283Z,56.94
2022-08-17T05:44:00.294Z,56.81
2022-08-17T05:45:01.274Z,55.89
2022-08-17T05:46:00.264Z,56.09
2022-08-17T05:47:00.259Z,56.55
2022-08-17T05:48:00.242Z,56.38
2022-08-17T05:49:00.246Z,56.37
2022-08-17T05:50:00.238Z,55.11
2022-08-17T05:51:00.229Z,55.61
2022-08-17T05:52:00.235Z,55.79
2022-08-17T05:53:00.214Z,55.93
2022-08-17T05:54:00.211Z,54.62
2022-08-17T05:55:00.203Z,54.49
2022-08-17T05:56:00.187Z,56.47
2022-08-17T05:57:01.218Z,56.22
2022-08-17T05:58:00.253Z,55.74
2022-08-17T05:59:00.258Z,55.80
2022-08-17T06:00:00.208Z,54.42
2022-08-17T06:01:00.214Z,55.62
2022-08-17T06:02:00.167Z,55.56
2022-08-17T06:03:00.166Z,55.06
2022-08-17T06:04:00.147Z,55.34
2022-08-17T06:05:00.146Z,56.53
2022-08-17T06:06:00.137Z,56.06
2022-08-17T06:07:00.135Z,56.13
2022-08-17T06:08:00.141Z,54.20
2022-08-17T06:09:00.118Z,55.58
2022-08-17T06:10:00.121Z,56.35
2022-08-17T06:11:00.105Z,55.62
2022-08-17T06:12:00.144Z,55.69
2022-08-17T06:13:00.101Z,55.62
2022-08-17T06:14:00.101Z,55.51
2022-08-17T06:15:00.077Z,55.56
2022-08-17T06:16:00.061Z,55.77
2022-08-17T06:17:00.059Z,57.61
2022-08-17T06:18:00.073Z,56.75
2022-08-17T06:19:00.038Z,56.83
2022-08-17T06:20:00.039Z,55.68
2022-08-17T06:21:00.037Z,55.15
2022-08-17T06:22:00.021Z,54.88
2022-08-17T06:23:00.045Z,54.52
2022-08-17T06:24:00.031Z,55.09
2022-08-17T06:25:00.005Z,56.25
2022-08-17T06:26:00.003Z,54.56
2022-08-17T06:26:59.990Z,54.56
2022-08-17T06:28:00.004Z,54.31
2022-08-17T06:28:59.989Z,55.37
2022-08-17T06:29:59.970Z,56.18
2022-08-17T06:31:01.407Z,55.10
2022-08-17T06:31:59.963Z,53.98
2022-08-17T06:32:59.964Z,55.78
2022-08-17T06:33:59.948Z,55.34
2022-08-17T06:34:59.940Z,54.17
2022-08-17T06:35:59.937Z,65.05
2022-08-17T06:36:59.928Z,53.14
2022-08-17T06:37:59.941Z,53.65
2022-08-17T06:38:59.913Z,53.86
2022-08-17T06:39:59.965Z,54.76
2022-08-17T06:41:00.027Z,55.49
2022-08-17T06:41:59.888Z,53.45
2022-08-17T06:43:06.768Z,54.30
2022-08-17T06:44:00.889Z,53.01
2022-08-17T06:44:59.877Z,55.42
2022-08-17T06:45:59.872Z,54.39
2022-08-17T06:46:59.869Z,54.27
2022-08-17T06:47:59.879Z,53.68
2022-08-17T06:48:59.845Z,52.90
2022-08-17T06:49:59.841Z,53.80
2022-08-17T06:50:59.862Z,53.23
2022-08-17T06:51:59.821Z,52.37
2022-08-17T06:53:00.089Z,52.11
2022-08-17T06:53:59.818Z,53.93
2022-08-17T06:54:59.813Z,52.76
2022-08-17T06:55:59.809Z,55.44
2022-08-17T06:56:59.812Z,54.50
2022-08-17T06:57:59.795Z,54.99
2022-08-17T06:58:59.786Z,54.32
2022-08-17T06:59:59.784Z,54.44
2022-08-17T07:00:59.906Z,55.12
2022-08-17T07:01:59.791Z,55.08
2022-08-17T07:02:59.787Z,54.96
2022-08-17T07:03:59.756Z,54.86
2022-08-17T07:05:00.745Z,55.16
2022-08-17T07:05:59.736Z,53.01
2022-08-17T07:06:59.728Z,54.11
2022-08-17T07:07:59.745Z,61.27
2022-08-17T07:08:59.961Z,54.61
2022-08-17T07:09:59.709Z,54.55
2022-08-17T07:10:59.692Z,53.48
2022-08-17T07:12:00.689Z,52.92
2022-08-17T07:12:59.685Z,54.59
2022-08-17T07:13:59.688Z,53.97
2022-08-17T07:14:59.675Z,54.71
2022-08-17T07:15:59.661Z,56.11
2022-08-17T07:16:59.660Z,55.94
2022-08-17T07:17:59.974Z,53.33
2022-08-17T07:18:59.642Z,54.71
2022-08-17T07:19:59.632Z,56.11
2022-08-17T07:20:59.625Z,56.97
2022-08-17T07:21:59.610Z,54.05
2022-08-17T07:23:00.604Z,55.06
2022-08-17T07:23:59.609Z,52.73
2022-08-17T07:24:59.597Z,55.41
2022-08-17T07:25:59.588Z,53.78
2022-08-17T07:26:59.585Z,54.77
2022-08-17T07:27:59.590Z,53.46
2022-08-17T07:28:59.585Z,54.04
2022-08-17T07:29:59.561Z,53.06
2022-08-17T07:30:59.557Z,52.15
2022-08-17T07:31:59.544Z,52.52
2022-08-17T07:32:59.547Z,52.47
2022-08-17T07:33:59.540Z,52.99
2022-08-17T07:34:59.540Z,52.91
2022-08-17T07:35:59.521Z,52.54
2022-08-17T07:36:59.500Z,52.25
2022-08-17T07:37:59.499Z,52.49
2022-08-17T07:38:59.500Z,54.62
2022-08-17T07:40:15.132Z,51.91
2022-08-17T07:41:00.488Z,53.30
2022-08-17T07:41:59.491Z,52.60
2022-08-17T07:42:59.472Z,52.61
2022-08-17T07:43:59.485Z,55.47
2022-08-17T07:44:59.508Z,53.67
2022-08-17T07:45:59.465Z,54.06
2022-08-17T07:46:59.448Z,54.26
2022-08-17T07:47:59.457Z,53.12
2022-08-17T07:48:59.460Z,53.51
2022-08-17T07:49:59.425Z,54.93
2022-08-17T07:50:59.425Z,55.15
2022-08-17T07:51:59.973Z,55.43
2022-08-17T07:53:00.410Z,54.61
2022-08-17T07:54:13.210Z,52.36
2022-08-17T07:55:01.392Z,53.36
2022-08-17T07:55:59.392Z,52.17
2022-08-17T07:56:59.392Z,53.31
2022-08-17T07:57:59.382Z,52.98
2022-08-17T07:58:59.364Z,54.10
2022-08-17T07:59:59.364Z,52.50
2022-08-17T08:00:59.343Z,53.81
2022-08-17T08:01:59.374Z,51.12
2022-08-17T08:02:59.340Z,51.60
2022-08-17T08:03:59.326Z,54.95
2022-08-17T08:05:00.973Z,54.94
2022-08-17T08:06:00.331Z,54.20
2022-08-17T08:06:59.305Z,53.76
2022-08-17T08:07:59.325Z,52.43
2022-08-17T08:08:59.300Z,54.45
2022-08-17T08:09:59.280Z,54.09
2022-08-17T08:11:00.292Z,52.21
2022-08-17T08:11:59.280Z,52.85
2022-08-17T08:12:59.283Z,52.08
2022-08-17T08:13:59.331Z,50.94
2022-08-17T08:14:59.261Z,51.54
2022-08-17T08:15:59.255Z,53.28
2022-08-17T08:16:59.249Z,54.95
2022-08-17T08:17:59.228Z,52.91
2022-08-17T08:18:59.243Z,53.05
2022-08-17T08:19:59.227Z,53.71
2022-08-17T08:20:59.240Z,55.75
2022-08-17T08:21:59.225Z,57.34
2022-08-17T08:22:59.200Z,57.28
2022-08-17T08:23:59.204Z,53.68
2022-08-17T08:24:59.200Z,51.39
2022-08-17T08:25:59.196Z,52.06
2022-08-17T08:26:59.179Z,52.16
2022-08-17T08:27:59.341Z,53.14
2022-08-17T08:28:59.159Z,52.19
2022-08-17T08:29:59.178Z,53.01
2022-08-17T08:30:59.171Z,51.43
2022-08-17T08:31:59.156Z,51.61
2022-08-17T08:32:59.144Z,50.77
2022-08-17T08:34:00.141Z,52.10
2022-08-17T08:35:02.247Z,51.98
2022-08-17T08:35:59.131Z,51.45
2022-08-17T08:37:16.409Z,49.75
2022-08-17T08:38:00.104Z,51.03
2022-08-17T08:38:59.126Z,52.60
2022-08-17T08:39:59.172Z,52.85
2022-08-17T08:40:59.100Z,52.67
2022-08-17T08:41:59.089Z,52.62
2022-08-17T08:42:59.108Z,54.38
2022-08-17T08:43:59.164Z,53.35
2022-08-17T08:45:04.761Z,52.25
2022-08-17T08:45:59.057Z,53.82
2022-08-17T08:46:59.060Z,52.79
2022-08-17T08:48:02.402Z,51.37
2022-08-17T08:49:14.612Z,51.61
2022-08-17T08:50:03.859Z,50.90
2022-08-17T08:51:00.043Z,53.03
2022-08-17T08:51:59.019Z,54.22
2022-08-17T08:52:59.035Z,53.01
2022-08-17T08:53:59.029Z,52.67
2022-08-17T08:54:59.008Z,50.34
2022-08-17T08:55:59.020Z,51.91
2022-08-17T08:57:23.125Z,50.88
2022-08-17T08:58:00.986Z,49.35
2022-08-17T08:58:58.986Z,49.91
2022-08-17T08:59:58.980Z,49.11
2022-08-17T09:00:59.046Z,51.21
2022-08-17T09:01:58.965Z,56.24
2022-08-17T09:02:58.957Z,53.18
2022-08-17T09:04:17.869Z,49.82
2022-08-17T09:05:16.100Z,50.73
2022-08-17T09:06:00.941Z,51.91
2022-08-17T09:06:58.932Z,52.61
2022-08-17T09:07:58.923Z,49.80
2022-08-17T09:08:58.923Z,49.57
2022-08-17T09:09:59.545Z,49.75
2022-08-17T09:10:59.924Z,50.16
2022-08-17T09:12:01.886Z,50.95
2022-08-17T09:12:58.894Z,49.62
2022-08-17T09:13:58.895Z,49.68
2022-08-17T09:14:58.885Z,48.47
2022-08-17T09:15:58.887Z,49.46
2022-08-17T09:16:58.891Z,49.44
2022-08-17T09:18:28.390Z,48.81
2022-08-17T09:19:04.455Z,48.74
2022-08-17T09:19:58.856Z,50.67
2022-08-17T09:20:58.875Z,48.23
2022-08-17T09:21:58.855Z,50.30
2022-08-17T09:22:58.867Z,50.91
2022-08-17T09:23:58.843Z,48.83
2022-08-17T09:24:58.831Z,49.12
2022-08-17T09:25:58.819Z,51.45
2022-08-17T09:26:58.842Z,49.70
2022-08-17T09:28:00.718Z,49.41
2022-08-17T09:28:58.804Z,48.48
2022-08-17T09:29:58.811Z,49.18
2022-08-17T09:30:58.800Z,52.91
2022-08-17T09:31:58.779Z,50.53
2022-08-17T09:32:58.802Z,47.43
2022-08-17T09:33:58.779Z,46.47
2022-08-17T09:34:58.776Z,48.95
2022-08-17T09:35:58.767Z,49.12
2022-08-17T09:36:58.764Z,49.45
2022-08-17T09:37:59.763Z,50.67
2022-08-17T09:38:58.758Z,47.79
2022-08-17T09:39:58.811Z,49.02
2022-08-17T09:40:58.746Z,48.42
2022-08-17T09:41:58.735Z,50.16
2022-08-17T09:42:58.733Z,48.46
2022-08-17T09:43:58.723Z,49.05
2022-08-17T09:44:58.736Z,48.14
2022-08-17T09:45:58.719Z,48.69
2022-08-17T09:46:58.730Z,48.62
2022-08-17T09:47:58.703Z,49.13
2022-08-17T09:48:58.708Z,48.38
2022-08-17T09:49:58.728Z,50.39
2022-08-17T09:51:04.818Z,48.88
2022-08-17T09:51:58.690Z,50.21
2022-08-17T09:52:58.683Z,51.65
2022-08-17T09:54:14.808Z,51.36
2022-08-17T09:55:00.699Z,52.67
2022-08-17T09:55:58.671Z,52.58
2022-08-17T09:57:25.837Z,51.34
2022-08-17T09:58:00.655Z,50.96
2022-08-17T09:58:58.652Z,49.72
2022-08-17T09:59:58.657Z,49.68
2022-08-17T10:00:58.674Z,53.54
2022-08-17T10:01:58.639Z,53.14
2022-08-17T10:02:58.643Z,52.67
2022-08-17T10:03:58.630Z,52.21
2022-08-17T10:04:58.619Z,52.55
2022-08-17T10:05:58.648Z,51.18
2022-08-17T10:06:58.623Z,50.32
2022-08-17T10:07:58.619Z,50.28
2022-08-17T10:08:58.600Z,49.25
2022-08-17T10:09:58.585Z,48.03
2022-08-17T10:10:59.590Z,48.67
2022-08-17T10:11:58.574Z,49.10
2022-08-17T10:12:58.599Z,48.64
2022-08-17T10:13:59.757Z,48.25
2022-08-17T10:14:58.566Z,47.87
2022-08-17T10:15:58.559Z,48.70
2022-08-17T10:16:58.556Z,49.46
2022-08-17T10:17:58.571Z,49.52
2022-08-17T10:18:58.550Z,50.37
2022-08-17T10:19:58.530Z,47.42
2022-08-17T10:20:58.535Z,49.82
2022-08-17T10:22:01.026Z,49.03
2022-08-17T10:22:58.566Z,49.66
2022-08-17T10:23:58.518Z,50.12
2022-08-17T10:25:20.956Z,49.05
2022-08-17T10:25:59.535Z,47.96
2022-08-17T10:26:58.511Z,47.10
2022-08-17T10:27:58.517Z,47.91
2022-08-17T10:28:58.542Z,47.98
2022-08-17T10:29:58.490Z,50.52
2022-08-17T10:31:23.274Z,49.92
2022-08-17T10:32:00.491Z,48.69
2022-08-17T10:32:58.475Z,48.09
2022-08-17T10:33:58.489Z,52.05
2022-08-17T10:34:58.467Z,52.83
2022-08-17T10:35:58.446Z,51.61
2022-08-17T10:36:58.455Z,51.51
2022-08-17T10:37:58.446Z,52.12
2022-08-17T10:38:58.442Z,51.25
2022-08-17T10:39:58.500Z,50.74
2022-08-17T10:40:58.432Z,52.46
2022-08-17T10:41:58.427Z,51.89
2022-08-17T10:42:58.426Z,53.14
2022-08-17T10:44:39.421Z,54.96
2022-08-17T10:44:59.427Z,53.70
2022-08-17T10:46:10.703Z,52.93
2022-08-17T10:46:59.393Z,54.68
2022-08-17T10:48:02.770Z,56.48
2022-08-17T10:49:00.393Z,54.57
2022-08-17T10:49:58.385Z,54.84
2022-08-17T10:50:58.382Z,53.31
2022-08-17T10:51:58.447Z,54.78
2022-08-17T10:52:58.354Z,54.33
2022-08-17T10:53:58.356Z,54.03
2022-08-17T10:54:58.954Z,55.51
2022-08-17T10:55:58.345Z,54.18
2022-08-17T10:56:58.350Z,53.24
2022-08-17T10:57:58.360Z,54.12
2022-08-17T10:58:58.326Z,54.75
2022-08-17T10:59:58.322Z,54.00
2022-08-17T11:00:58.409Z,51.95
2022-08-17T11:01:58.332Z,52.48
2022-08-17T11:02:58.301Z,53.42
2022-08-17T11:03:58.290Z,53.14
2022-08-17T11:04:58.282Z,53.62
2022-08-17T11:05:58.288Z,52.65
2022-08-17T11:06:58.321Z,53.18
2022-08-17T11:07:58.282Z,53.08
2022-08-17T11:08:58.269Z,53.55
2022-08-17T11:09:58.257Z,52.87
2022-08-17T11:10:58.245Z,54.82
2022-08-17T11:11:58.254Z,58.10
2022-08-17T11:12:58.239Z,54.90
2022-08-17T11:13:58.229Z,56.29
2022-08-17T11:14:58.221Z,55.20
2022-08-17T11:16:00.616Z,56.30
2022-08-17T11:16:58.209Z,56.73
2022-08-17T11:17:58.227Z,55.56
2022-08-17T11:18:58.201Z,56.89
2022-08-17T11:19:58.192Z,56.62
2022-08-17T11:20:58.173Z,54.37
2022-08-17T11:21:58.174Z,53.79
2022-08-17T11:22:58.170Z,53.84
2022-08-17T11:23:58.164Z,56.37
2022-08-17T11:24:58.166Z,58.39
2022-08-17T11:25:58.157Z,54.93
2022-08-17T11:26:58.175Z,53.67
2022-08-17T11:27:58.138Z,55.52
2022-08-17T11:28:58.141Z,57.81
2022-08-17T11:30:01.862Z,54.85
2022-08-17T11:30:59.175Z,54.69
2022-08-17T11:31:58.106Z,54.75
2022-08-17T11:32:58.116Z,53.85
2022-08-17T11:33:58.100Z,57.10
2022-08-17T11:34:58.093Z,55.77
2022-08-17T11:35:58.089Z,55.45
2022-08-17T11:36:58.084Z,56.05
2022-08-17T11:37:58.080Z,55.21
2022-08-17T11:38:58.077Z,54.91
2022-08-17T11:39:58.122Z,54.77
2022-08-17T11:40:58.052Z,52.99
2022-08-17T11:41:58.036Z,55.15
2022-08-17T11:42:58.059Z,55.58
2022-08-17T11:43:58.035Z,56.29
2022-08-17T11:44:58.033Z,54.77
2022-08-17T11:45:58.024Z,55.05
2022-08-17T11:46:58.020Z,55.88
2022-08-17T11:48:26.048Z,57.24
2022-08-17T11:49:00.005Z,57.45
2022-08-17T11:49:58.001Z,54.97
2022-08-17T11:50:57.980Z,56.13
2022-08-17T11:51:57.989Z,55.03
2022-08-17T11:52:57.996Z,55.79
2022-08-17T11:54:21.480Z,54.72
2022-08-17T11:55:17.560Z,55.25
2022-08-17T11:55:59.962Z,56.87
2022-08-17T11:56:57.946Z,55.31
2022-08-17T11:57:57.949Z,55.39
2022-08-17T11:58:57.956Z,56.52
2022-08-17T11:59:58.638Z,57.22
2022-08-17T12:00:57.931Z,56.82
2022-08-17T12:01:57.924Z,55.04
2022-08-17T12:02:57.908Z,56.67
2022-08-17T12:03:57.918Z,55.78
2022-08-17T12:04:57.912Z,56.71
2022-08-17T12:05:57.898Z,55.41
2022-08-17T12:06:57.907Z,53.80
2022-08-17T12:07:57.888Z,55.35
2022-08-17T12:08:57.899Z,56.34
2022-08-17T12:09:57.876Z,55.09
2022-08-17T12:10:57.873Z,54.87
2022-08-17T12:12:12.763Z,55.11
2022-08-17T12:12:58.859Z,55.67
2022-08-17T12:13:57.862Z,55.15
2022-08-17T12:15:10.253Z,62.64
2022-08-17T12:15:59.838Z,56.79
2022-08-17T12:16:57.830Z,54.29
2022-08-17T12:17:58.221Z,56.29
2022-08-17T12:18:57.818Z,56.35
2022-08-17T12:19:57.827Z,56.60
2022-08-17T12:20:57.794Z,57.58
2022-08-17T12:21:57.816Z,55.48
2022-08-17T12:22:57.797Z,56.69
2022-08-17T12:23:57.804Z,55.93
2022-08-17T12:24:57.782Z,56.78
2022-08-17T12:25:57.769Z,56.09
2022-08-17T12:26:57.767Z,55.70
2022-08-17T12:28:06.352Z,56.39
2022-08-17T12:28:58.766Z,55.75
2022-08-17T12:29:57.742Z,55.54
2022-08-17T12:30:57.735Z,54.97
2022-08-17T12:31:57.743Z,57.48
2022-08-17T12:32:57.722Z,55.80
2022-08-17T12:33:57.716Z,55.10
2022-08-17T12:34:57.703Z,55.47
2022-08-17T12:35:59.635Z,58.15
2022-08-17T12:36:58.859Z,57.18
2022-08-17T12:37:57.691Z,57.02
2022-08-17T12:38:57.704Z,56.39
2022-08-17T12:39:57.749Z,56.29
2022-08-17T12:40:58.028Z,56.59
2022-08-17T12:42:02.164Z,56.55
2022-08-17T12:42:59.648Z,56.40
2022-08-17T12:43:57.667Z,55.87
2022-08-17T12:44:57.646Z,56.91
2022-08-17T12:45:57.637Z,56.88
2022-08-17T12:46:57.616Z,54.69
2022-08-17T12:47:57.614Z,55.95
2022-08-17T12:48:59.959Z,56.14
2022-08-17T12:49:57.603Z,56.29
2022-08-17T12:50:57.596Z,55.49
2022-08-17T12:51:57.589Z,55.74